Dades meteomassalio
Diari Summary for Juny 28, 2017 Units:  Metric    English   Both
« Previous Day
Next Day »
Diari Semanal Mensual Anual Personalitzat
  Maxima: Minima: Mijana:
Temperatura: -17.8 °C -7.3 °C -4.4 °C
Rosada: -17.8 °C -14.8 °C -11.3 °C
Humitat: Humidity % 27 % 48 %
Velocitat del vent: 0 km/h 0 km/h 29.6 km/h
Racha vent: 0 km/h - -
Vent:- - WNW
Pressio: 0 hPa 33937.9 hPa -
Pluja: 0 mm    
Historical Graphs
 
 
Tabular Data for Juny 28, 2017
Time Temperature Dew Point Pressure Wind Wind Speed Wind Gust Humidity Rainfall Rate (Hourly) solar Conditions
-17.8 °C -17.8 °C 0 hPa Calm     Humidity % 0 mm SolarRadiationWatts/m^2 W/m2 Conditions
00:01 -4.4 °C -10.4 °C 34086.9 hPa WSW 15 km/h 15 km/h 51 % 0 mm 0.0 W/m2 CLR
00:06 -4.5 °C -10.5 °C 34086.9 hPa Calm     51 % 0 mm 0.0 W/m2 CLR
00:11 -4.6 °C -10.4 °C 34097 hPa Calm     52 % 0 mm 0.0 W/m2 CLR
00:16 -4.7 °C -10.3 °C 34086.9 hPa West 11.9 km/h 11.9 km/h 53 % 0 mm 0.0 W/m2 CLR
00:21 -4.7 °C -10.2 °C 34086.9 hPa WNW 17.9 km/h 17.9 km/h 54 % 0 mm 0.0 W/m2 CLR
00:26 -4.8 °C -10.2 °C 34097 hPa West 20.9 km/h 20.9 km/h 54 % 0 mm 0.0 W/m2 CLR
00:31 -4.8 °C -10.1 °C 34097 hPa West 15.6 km/h 15.6 km/h 55 % 0 mm 0.0 W/m2 CLR
00:36 -4.8 °C -10.2 °C 34097 hPa WNW 23.8 km/h 23.8 km/h 55 % 0 mm 0.0 W/m2 CLR
00:41 -4.8 °C -10.2 °C 34097 hPa WNW 20.9 km/h 20.9 km/h 55 % 0 mm 0.0 W/m2 CLR
00:42 -4.8 °C -10.2 °C 34097 hPa West 29.8 km/h 29.8 km/h 55 % 0 mm 0.0 W/m2 CLR
00:47 -4.9 °C -10.2 °C 34097 hPa West 15 km/h 15 km/h 55 % 0 mm 0.0 W/m2 CLR
00:52 -4.9 °C -10.2 °C 34097 hPa WNW 11.9 km/h 11.9 km/h 55 % 0 mm 0.0 W/m2 CLR
00:57 -5 °C -10.3 °C 34097 hPa West 17.9 km/h 17.9 km/h 55 % 0 mm 0.0 W/m2 CLR
01:02 -5.1 °C -10.2 °C 34097 hPa West 20.9 km/h 20.9 km/h 56 % 0 mm 0.0 W/m2 CLR
01:07 -5.1 °C -10.2 °C 34097 hPa West 11.9 km/h 11.9 km/h 56 % 0 mm 0.0 W/m2 CLR
01:12 -5.1 °C -10.2 °C 34097 hPa WNW 26.9 km/h 26.9 km/h 56 % 0 mm 0.0 W/m2 CLR
01:17 -5.1 °C -10.2 °C 34107.2 hPa WSW 11.9 km/h 11.9 km/h 56 % 0 mm 0.0 W/m2 CLR
01:22 -5.1 °C -10.2 °C 34097 hPa West 9 km/h 9 km/h 56 % 0 mm 0.0 W/m2 CLR
01:27 -5.1 °C -10.2 °C 34107.2 hPa WSW 9 km/h 9 km/h 56 % 0 mm 0.0 W/m2 CLR
01:32 -5.1 °C -10.2 °C 34107.2 hPa West 20.9 km/h 20.9 km/h 56 % 0 mm 0.0 W/m2 CLR
01:37 -5.1 °C -10.2 °C 34107.2 hPa West 17.9 km/h 17.9 km/h 56 % 0 mm 0.0 W/m2 CLR
01:42 -5.1 °C -10.2 °C 34107.2 hPa WNW 10.3 km/h 10.3 km/h 56 % 0 mm 0.0 W/m2 CLR
01:47 -5.2 °C -10.1 °C 34107.2 hPa WNW 9 km/h   57 % 0 mm 0.0 W/m2 CLR
01:52 -5.2 °C -10.2 °C 34107.2 hPa Calm     57 % 0 mm 0.0 W/m2 CLR
01:57 -5.2 °C -10.2 °C 34107.2 hPa Calm     57 % 0 mm 0.0 W/m2 CLR
02:02 -5.3 °C -10.1 °C 34107.2 hPa Calm     58 % 0 mm 0.0 W/m2 CLR
02:07 -5.3 °C -10.2 °C 34097 hPa Calm     58 % 0 mm 0.0 W/m2 CLR
02:12 -5.4 °C -10.2 °C 34097 hPa Calm     58 % 0 mm 0.0 W/m2 CLR
02:17 -5.4 °C -10.2 °C 34097 hPa Calm     58 % 0 mm 0.0 W/m2 CLR
02:22 -5.4 °C -10.2 °C 34097 hPa Calm     58 % 0 mm 0.0 W/m2 CLR
02:27 -5.5 °C -10.2 °C 34097 hPa Calm     59 % 0 mm 0.0 W/m2 CLR
02:32 -5.6 °C -10.2 °C 34097 hPa Calm     59 % 0 mm 0.0 W/m2 CLR
02:37 -5.7 °C -10.2 °C 34097 hPa Calm     60 % 0 mm 0.0 W/m2 CLR
02:42 -5.7 °C -10.2 °C 34097 hPa Calm     60 % 0 mm 0.0 W/m2 CLR
02:47 -5.7 °C -10.2 °C 34097 hPa Calm     60 % 0 mm 0.0 W/m2 CLR
02:52 -5.7 °C -10.2 °C 34097 hPa Calm     60 % 0 mm 0.0 W/m2 CLR
02:57 -5.7 °C -10.2 °C 34097 hPa Calm     60 % 0 mm 0.0 W/m2 CLR
03:02 -5.8 °C -10.2 °C 34097 hPa Calm     61 % 0 mm 0.0 W/m2 CLR
03:07 -5.8 °C -10.2 °C 34097 hPa Calm     61 % 0 mm 0.0 W/m2 CLR
03:12 -5.9 °C -10.1 °C 34097 hPa West 9 km/h   62 % 0 mm 0.0 W/m2 CLR
03:17 -5.9 °C -10.1 °C 34097 hPa Calm   0.5 km/h 62 % 0 mm 0.0 W/m2 CLR
03:18 -5.9 °C -10.1 °C 34097 hPa NW 10.3 km/h 10.3 km/h 62 % 0 mm 0.0 W/m2 CLR
03:23 -5.9 °C -10.1 °C 34097 hPa WNW 6 km/h 6 km/h 62 % 0 mm 0.0 W/m2 CLR
03:28 -5.9 °C -10.1 °C 34086.9 hPa West 5.1 km/h 5.1 km/h 62 % 0 mm 0.0 W/m2 CLR
03:33 -5.9 °C -10.1 °C 34086.9 hPa WNW 5.1 km/h 5.1 km/h 62 % 0 mm 0.0 W/m2 CLR
03:38 -5.9 °C -10.2 °C 34086.9 hPa West 9 km/h   62 % 0 mm 0.0 W/m2 CLR
03:43 -6 °C -10.1 °C 34086.9 hPa WNW 10.3 km/h 10.3 km/h 63 % 0 mm 0.0 W/m2 CLR
03:48 -6.1 °C -10.1 °C 34086.9 hPa West 7.7 km/h 7.7 km/h 63 % 0 mm 0.0 W/m2 CLR
03:53 -6.1 °C -10.2 °C 34086.9 hPa Calm     63 % 0 mm 0.0 W/m2 CLR
03:58 -6.2 °C -10.1 °C 34086.9 hPa WNW 9 km/h   64 % 0 mm 0.0 W/m2 CLR
04:03 -6.2 °C -10.1 °C 34086.9 hPa WNW 9 km/h 9 km/h 64 % 0 mm 0.0 W/m2 CLR
04:08 -6.2 °C -10.2 °C 34086.9 hPa WNW 10.3 km/h 10.3 km/h 64 % 0 mm 0.0 W/m2 CLR
04:13 -6.3 °C -10.2 °C 34073.3 hPa WNW 9 km/h 9 km/h 64 % 0 mm 0.0 W/m2 CLR
04:18 -6.2 °C -10.2 °C 34073.3 hPa Calm     64 % 0 mm 0.0 W/m2 CLR
04:23 -6.3 °C -10.2 °C 34073.3 hPa Calm     64 % 0 mm 0.0 W/m2 CLR
04:28 -6.3 °C -10.2 °C 34073.3 hPa Calm     65 % 0 mm 0.0 W/m2 CLR
04:33 -6.5 °C -10.1 °C 34073.3 hPa Calm     66 % 0 mm 0.0 W/m2 CLR
04:38 -6.6 °C -10.2 °C 34073.3 hPa Calm     66 % 0 mm 0.0 W/m2 CLR
04:43 -6.6 °C -10.1 °C 34073.3 hPa West 11.9 km/h 11.9 km/h 67 % 0 mm 0.0 W/m2 CLR
04:49 -6.6 °C -10 °C 34073.3 hPa WSW 15 km/h 15 km/h 68 % 0 mm 0.0 W/m2 CLR
04:54 -6.6 °C -9.9 °C 34073.3 hPa SW 11.9 km/h 11.9 km/h 68 % 0 mm 0.0 W/m2 CLR
04:59 -6.6 °C -10 °C 34073.3 hPa West 10.3 km/h 10.3 km/h 68 % 0 mm 0.0 W/m2 CLR
05:04 -6.6 °C -9.9 °C 34073.3 hPa Calm     69 % 0 mm 0.0 W/m2 CLR
05:09 -6.7 °C -9.9 °C 34073.3 hPa Calm     69 % 0 mm 0.0 W/m2 CLR
05:14 -6.7 °C -9.9 °C 34073.3 hPa West 9 km/h 9 km/h 69 % 0 mm 0.0 W/m2 CLR
05:19 -6.7 °C -9.9 °C 34073.3 hPa WSW 9 km/h 9 km/h 69 % 0 mm 0.0 W/m2 CLR
05:24 -6.7 °C -9.9 °C 34073.3 hPa WNW 15.6 km/h 15.6 km/h 69 % 0 mm 0.0 W/m2 CLR
05:29 -6.7 °C -10.1 °C 34073.3 hPa West 3.1 km/h   68 % 0 mm 0.0 W/m2 CLR
05:34 -6.6 °C -10.2 °C 34073.3 hPa WNW 20.9 km/h 20.9 km/h 66 % 0 mm 0.0 W/m2 CLR
05:39 -6.5 °C -10.4 °C 34073.3 hPa NW 32.8 km/h 32.8 km/h 64 % 0 mm 0.0 W/m2 CLR
05:44 -6.4 °C -10.4 °C 34073.3 hPa WNW 32.8 km/h 32.8 km/h 63 % 0 mm 0.0 W/m2 CLR
05:49 -6.3 °C -10.5 °C 34073.3 hPa WNW 38.8 km/h 38.8 km/h 62 % 0 mm 0.0 W/m2 CLR
05:54 -6.3 °C -10.4 °C 34073.3 hPa WNW 35.7 km/h 35.7 km/h 62 % 0 mm 0.0 W/m2 CLR
05:59 -6.3 °C -10.5 °C 34073.3 hPa NW 35.7 km/h 35.7 km/h 62 % 0 mm 0.0 W/m2 CLR
06:04 -6.4 °C -10.6 °C 34073.3 hPa West 31.1 km/h 31.1 km/h 62 % 0 mm 0.0 W/m2 CLR
06:09 -6.5 °C -10.5 °C 34073.3 hPa WNW 29.8 km/h 29.8 km/h 63 % 0 mm 0.0 W/m2 CLR
06:14 -6.6 °C -10.5 °C 34073.3 hPa WNW 29.8 km/h 29.8 km/h 64 % 0 mm 0.0 W/m2 CLR
06:19 -6.6 °C -10.4 °C 34073.3 hPa WNW 23.8 km/h 23.8 km/h 65 % 0 mm 0.0 W/m2 OVC
06:24 -6.7 °C -10.2 °C 34073.3 hPa WNW 26.9 km/h 26.9 km/h 67 % 0 mm 0.0 W/m2 OVC
06:29 -6.8 °C -10.3 °C 34073.3 hPa NW 15 km/h 15 km/h 67 % 0 mm 0.0 W/m2 OVC
06:34 -6.9 °C -10.3 °C 34073.3 hPa NW 11.9 km/h 11.9 km/h 68 % 0 mm 7.0 W/m2 BKN
06:39 -6.9 °C -10.2 °C 34073.3 hPa NW 20.8 km/h 20.8 km/h 69 % 0 mm 7.0 W/m2 BKN
06:44 -7 °C -10.1 °C 34086.9 hPa NW 23.8 km/h 23.8 km/h 70 % 0 mm 11.0 W/m2 BKN
06:49 -7 °C -9.9 °C 34073.3 hPa WNW 23.8 km/h 23.8 km/h 71 % 0 mm 11.0 W/m2 BKN
06:54 -6.9 °C -9.9 °C 34073.3 hPa WNW 20.9 km/h 20.9 km/h 71 % 0 mm 11.0 W/m2 BKN
06:59 -6.9 °C -9.9 °C 34086.9 hPa WNW 17.9 km/h 17.9 km/h 71 % 0 mm 11.0 W/m2 BKN
07:04 -7 °C -9.9 °C 34086.9 hPa NW 11.9 km/h 11.9 km/h 72 % 0 mm 12.0 W/m2 BKN
07:09 -7.1 °C -9.9 °C 34086.9 hPa NW 11.9 km/h 11.9 km/h 72 % 0 mm 12.0 W/m2 BKN
07:14 -7.2 °C -9.9 °C 34086.9 hPa Calm   2.6 km/h 73 % 0 mm 21.0 W/m2 BKN
07:19 -7.2 °C -9.9 °C 34086.9 hPa WNW 9 km/h 9 km/h 73 % 0 mm 28.0 W/m2 BKN
07:24 -7.3 °C -10 °C 34086.9 hPa West 11.9 km/h 11.9 km/h 73 % 0 mm 30.0 W/m2 BKN
07:29 -7.3 °C -10.1 °C 34086.9 hPa WNW 9 km/h 9 km/h 73 % 0 mm 74.0 W/m2 FEW
07:34 -7.2 °C -9.9 °C 34086.9 hPa NW 9 km/h 9 km/h 73 % 0 mm 91.0 W/m2 SCT
07:39 -7.2 °C -10.1 °C 34086.9 hPa NW 11.9 km/h 11.9 km/h 72 % 0 mm 39.0 W/m2 CLR
07:44 -7.2 °C -10.1 °C 34086.9 hPa North 10.3 km/h 10.3 km/h 72 % 0 mm 95.0 W/m2 FEW
07:49 -7.2 °C -10.1 °C 34086.9 hPa NW 17.9 km/h 17.9 km/h 72 % 0 mm 63.0 W/m2 SCT
07:54 -7.1 °C -10 °C 34086.9 hPa NW 9 km/h 9 km/h 72 % 0 mm 102.0 W/m2 FEW
07:59 -7.1 °C -9.9 °C 34097 hPa NW 15 km/h 15 km/h 72 % 0 mm 195.0 W/m2 CLR
08:04 -7.1 °C -9.9 °C 34097 hPa Calm     72 % 0 mm 114.0 W/m2 CLR
08:09 -7 °C -9.8 °C 34097 hPa NNW 23.8 km/h 23.8 km/h 72 % 0 mm 220.0 W/m2 CLR
08:14 -6.9 °C -9.9 °C 34097 hPa NW 20.9 km/h 20.9 km/h 71 % 0 mm 221.0 W/m2 CLR
08:19 -6.9 °C -9.9 °C 34097 hPa NNW 11.9 km/h 11.9 km/h 71 % 0 mm 244.0 W/m2 FEW
08:25 -6.8 °C -9.7 °C 34097 hPa NW 15 km/h 15 km/h 72 % 0 mm 232.0 W/m2 FEW
08:30 -6.7 °C -9.7 °C 34097 hPa NW 17.9 km/h 17.9 km/h 71 % 0 mm 97.0 W/m2 CLR
08:35 -6.7 °C -9.8 °C 34097 hPa NNW 23.8 km/h 23.8 km/h 70 % 0 mm 339.0 W/m2 CLR
08:40 -6.7 °C -9.8 °C 34097 hPa NW 29.8 km/h 29.8 km/h 70 % 0 mm 79.0 W/m2 CLR
08:45 -6.7 °C -9.8 °C 34097 hPa WNW 11.9 km/h 11.9 km/h 70 % 0 mm 118.0 W/m2 CLR
08:50 -6.6 °C -9.8 °C 34086.9 hPa NW 9 km/h 9 km/h 70 % 0 mm 330.0 W/m2 CLR
08:55 -6.4 °C -9.8 °C 34086.9 hPa NW 20.9 km/h 20.9 km/h 68 % 0 mm 355.0 W/m2 CLR
09:00 -6.3 °C -9.7 °C 34086.9 hPa NW 15.6 km/h 15.6 km/h 68 % 0 mm 390.0 W/m2 CLR
09:05 -6.2 °C -9.9 °C 34097 hPa NW 23.8 km/h 23.8 km/h 66 % 0 mm 411.0 W/m2 CLR
09:10 -6.1 °C -9.6 °C 34097 hPa NW 25.9 km/h 25.9 km/h 67 % 0 mm 424.0 W/m2 CLR
09:15 -6 °C -9.8 °C 34086.9 hPa WNW 29.8 km/h 29.8 km/h 65 % 0 mm 424.0 W/m2 CLR
09:20 -5.9 °C -9.8 °C 34086.9 hPa NW 17.9 km/h 17.9 km/h 64 % 0 mm 429.0 W/m2 CLR
09:25 -5.8 °C -9.9 °C 34086.9 hPa NW 6 km/h   63 % 0 mm 443.0 W/m2 CLR
09:30 -5.7 °C -9.8 °C 34086.9 hPa WNW 9 km/h 9 km/h 63 % 0 mm 452.0 W/m2 CLR
09:35 -5.6 °C -9.7 °C 34086.9 hPa Calm     63 % 0 mm 462.0 W/m2 CLR
09:40 -5.4 °C -9.8 °C 34086.9 hPa NW 20.9 km/h 20.9 km/h 61 % 0 mm 483.0 W/m2 CLR
09:45 -5.4 °C -9.9 °C 34086.9 hPa NNW 26.9 km/h 26.9 km/h 60 % 0 mm 508.0 W/m2 CLR
09:50 -5.4 °C -10.1 °C 34086.9 hPa NW 35.7 km/h 35.7 km/h 59 % 0 mm 529.0 W/m2 CLR
09:55 -5.3 °C -10.1 °C 34086.9 hPa WNW 17.9 km/h 17.9 km/h 58 % 0 mm 547.0 W/m2 CLR
09:56 -5.3 °C -10.1 °C 34086.9 hPa WNW 32.8 km/h 32.8 km/h 58 % 0 mm 543.0 W/m2 CLR
10:01 -5.2 °C -10.1 °C 34086.9 hPa WNW 26.9 km/h 26.9 km/h 58 % 0 mm 585.0 W/m2 CLR
10:06 -5.1 °C -10.2 °C 34086.9 hPa WNW 29.8 km/h 29.8 km/h 56 % 0 mm 687.0 W/m2 CLR
10:11 -5.2 °C -10.1 °C 34073.3 hPa NW 12.9 km/h 12.9 km/h 57 % 0 mm 608.0 W/m2 CLR
10:16 -5.2 °C -10.3 °C 34073.3 hPa NW 20.9 km/h   56 % 0 mm 592.0 W/m2 CLR
10:21 -5 °C -10.2 °C 34073.3 hPa West 15.6 km/h 15.6 km/h 56 % 0 mm 603.0 W/m2 CLR
10:26 -4.9 °C -10.6 °C 34063.2 hPa NW 50.7 km/h 50.7 km/h 53 % 0 mm 619.0 W/m2 CLR
10:31 -4.9 °C -10.7 °C 34073.3 hPa NNW 31.1 km/h 31.1 km/h 52 % 0 mm 633.0 W/m2 CLR
10:36 -4.8 °C -10.4 °C 34063.2 hPa NW 38.8 km/h 38.8 km/h 53 % 0 mm 647.0 W/m2 CLR
10:41 -4.8 °C -10.6 °C 34063.2 hPa WNW 26.9 km/h 26.9 km/h 52 % 0 mm 661.0 W/m2 CLR
10:46 -4.7 °C -10.4 °C 34063.2 hPa West 20.9 km/h 20.9 km/h 52 % 0 mm 686.0 W/m2 CLR
10:51 -4.6 °C -10.5 °C 34063.2 hPa NW 15 km/h 15 km/h 51 % 0 mm 691.0 W/m2 CLR
10:56 -4.4 °C -10.6 °C 34063.2 hPa WNW 35.7 km/h 35.7 km/h 50 % 0 mm 717.0 W/m2 CLR
11:01 -4.4 °C -10.6 °C 34063.2 hPa WNW 38.8 km/h 38.8 km/h 50 % 0 mm 749.0 W/m2 CLR
11:06 -4.4 °C -10.7 °C 34063.2 hPa NNW 29.8 km/h 29.8 km/h 49 % 0 mm 784.0 W/m2 CLR
11:11 -4.3 °C -10.7 °C 34063.2 hPa NW 53.6 km/h 53.6 km/h 49 % 0 mm 772.0 W/m2 CLR
11:16 -4.3 °C -10.7 °C 34063.2 hPa WNW 29.8 km/h 29.8 km/h 49 % 0 mm 775.0 W/m2 CLR
11:21 -4.1 °C -10.5 °C 34049.6 hPa NW 32.8 km/h 32.8 km/h 49 % 0 mm 819.0 W/m2 CLR
11:26 -4.1 °C -10.5 °C 34049.6 hPa NW 32.8 km/h 32.8 km/h 49 % 0 mm 828.0 W/m2 CLR
11:31 -4.1 °C -10.4 °C 34063.2 hPa NW 29.8 km/h 29.8 km/h 49 % 0 mm 830.0 W/m2 CLR
11:36 -4.1 °C -10.5 °C 34049.6 hPa West 9 km/h 9 km/h 49 % 0 mm 881.0 W/m2 CLR
11:41 -4.1 °C -10.4 °C 34049.6 hPa NNW 29.8 km/h 29.8 km/h 49 % 0 mm 911.0 W/m2 CLR
11:46 -4 °C -10.3 °C 34049.6 hPa NW 17.9 km/h 17.9 km/h 49 % 0 mm 882.0 W/m2 CLR
11:51 -3.8 °C -10.7 °C 34049.6 hPa West 20.9 km/h 20.9 km/h 46 % 0 mm 204.0 W/m2 CLR
11:56 -4.1 °C -10.6 °C 34049.6 hPa WNW 29.8 km/h 29.8 km/h 48 % 0 mm 209.0 W/m2 CLR
12:01 -4 °C -10.9 °C 34049.6 hPa WNW 32.8 km/h 32.8 km/h 46 % 0 mm 904.0 W/m2 CLR
12:06 -3.8 °C -10.7 °C 34049.6 hPa NW 26.9 km/h 26.9 km/h 46 % 0 mm 898.0 W/m2 CLR
12:11 -3.8 °C -10.7 °C 34049.6 hPa WNW 29.8 km/h 29.8 km/h 46 % 0 mm 914.0 W/m2 CLR
12:16 -3.7 °C -10.6 °C 34039.5 hPa NW 29.8 km/h 29.8 km/h 46 % 0 mm 1016.0 W/m2 CLR
12:21 -3.4 °C -10.6 °C 34039.5 hPa North 29.8 km/h 29.8 km/h 45 % 0 mm 1005.0 W/m2 CLR
12:26 -3.4 °C -10.5 °C 34039.5 hPa NW 26.9 km/h 26.9 km/h 45 % 0 mm 944.0 W/m2 CLR
12:31 -3.3 °C -10.7 °C 34039.5 hPa West 29.8 km/h 29.8 km/h 44 % 0 mm 355.0 W/m2 CLR
12:36 -3.3 °C -10.7 °C 34039.5 hPa North 23.3 km/h 23.3 km/h 44 % 0 mm 276.0 W/m2 CLR
12:41 -3.3 °C -10.7 °C 34039.5 hPa NNW 33.6 km/h 33.6 km/h 44 % 0 mm 276.0 W/m2 CLR
12:46 -3.4 °C -10.7 °C 34039.5 hPa NNW 36.2 km/h 36.2 km/h 44 % 0 mm 431.0 W/m2 CLR
12:51 -3.3 °C -10.4 °C 34039.5 hPa NNW 20.9 km/h 20.9 km/h 45 % 0 mm 1125.0 W/m2 CLR
12:56 -3.1 °C -10.4 °C 34029.3 hPa NW 20.9 km/h 20.9 km/h 44 % 0 mm 1002.0 W/m2 CLR
13:01 -2.9 °C -10.8 °C 34029.3 hPa West 29.8 km/h 29.8 km/h 41 % 0 mm 1076.0 W/m2 CLR
13:03 -2.8 °C -10.8 °C 34029.3 hPa West 41.7 km/h 41.7 km/h 41 % 0 mm 1120.0 W/m2 CLR
13:08 -2.7 °C -10.7 °C 34015.8 hPa NNW 29.8 km/h 29.8 km/h 41 % 0 mm 211.0 W/m2 CLR
13:13 -3 °C -10.8 °C 34029.3 hPa WNW 29.8 km/h 29.8 km/h 42 % 0 mm 244.0 W/m2 CLR
13:18 -3.2 °C -11.1 °C 34015.8 hPa NW 28.5 km/h 28.5 km/h 41 % 0 mm 1118.0 W/m2 CLR
13:23 -2.9 °C -11.1 °C 34015.8 hPa NW 29.8 km/h 29.8 km/h 40 % 0 mm 1192.0 W/m2 CLR
13:29 -2.9 °C -11.1 °C 34015.8 hPa West 29.8 km/h 29.8 km/h 40 % 0 mm 258.0 W/m2 CLR
13:34 -2.8 °C -11.4 °C 34015.8 hPa NW 29.8 km/h 29.8 km/h 38 % 0 mm 309.0 W/m2 CLR
13:44 -2.7 °C -11.6 °C 34015.8 hPa NW 32.8 km/h 32.8 km/h 37 % 0 mm 434.0 W/m2 CLR
13:49 -2.6 °C -11.6 °C 34015.8 hPa NNW 54.4 km/h 54.4 km/h 36 % 0 mm 258.0 W/m2 CLR
13:59 -2.4 °C -11.8 °C 34005.6 hPa NNW 33.6 km/h 33.6 km/h 35 % 0 mm 1111.0 W/m2 CLR
14:04 -2.3 °C -11.6 °C 34005.6 hPa NNW 38.8 km/h 38.8 km/h 35 % 0 mm 246.0 W/m2 CLR
14:09 -2.2 °C -11.8 °C 34005.6 hPa WNW 50.7 km/h 50.7 km/h 34 % 0 mm 1253.0 W/m2 CLR
14:14 -2.1 °C -12.3 °C 34005.6 hPa WNW 32.8 km/h 32.8 km/h 32 % 0 mm 360.0 W/m2 CLR
14:19 -2.1 °C -12.3 °C 34005.6 hPa West 59.5 km/h 59.5 km/h 32 % 0 mm 1164.0 W/m2 CLR
14:24 -2.1 °C -12.2 °C 34005.6 hPa WNW 41.7 km/h 41.7 km/h 32 % 0 mm 1083.0 W/m2 CLR
14:29 -1.8 °C -12.3 °C 34005.6 hPa WNW 35.7 km/h 35.7 km/h 31 % 0 mm 1081.0 W/m2 CLR
14:34 -1.7 °C -12.2 °C 33992.1 hPa NNW 41.7 km/h 41.7 km/h 31 % 0 mm 1039.0 W/m2 CLR
14:39 -1.9 °C -12.3 °C 33992.1 hPa NW 35.7 km/h 35.7 km/h 31 % 0 mm 315.0 W/m2 CLR
14:44 -2.1 °C -12.3 °C 33992.1 hPa NW 53.6 km/h 53.6 km/h 32 % 0 mm 492.0 W/m2 CLR
14:49 -2.2 °C -12.3 °C 33992.1 hPa NW 53.6 km/h 53.6 km/h 32 % 0 mm 1169.0 W/m2 CLR
14:54 -2 °C -12.1 °C 33992.1 hPa NNW 47.6 km/h 47.6 km/h 32 % 0 mm 248.0 W/m2 CLR
14:59 -1.9 °C -12.3 °C 33992.1 hPa NW 50.7 km/h 50.7 km/h 31 % 0 mm 290.0 W/m2 CLR
15:04 -2.3 °C -12.4 °C 33992.1 hPa NW 32.8 km/h 32.8 km/h 32 % 0 mm 1090.0 W/m2 CLR
15:09 -2.1 °C -12.3 °C 33992.1 hPa WNW 41.7 km/h 41.7 km/h 32 % 0 mm 1090.0 W/m2 CLR
15:14 -2 °C -12.4 °C 33992.1 hPa WNW 26.9 km/h 26.9 km/h 31 % 0 mm 450.0 W/m2 CLR
15:15 -2 °C -12.4 °C 33981.9 hPa NW 26.9 km/h 26.9 km/h 31 % 0 mm 450.0 W/m2 CLR
15:20 -1.6 °C -12.3 °C 33981.9 hPa North 41.4 km/h 41.4 km/h 30 % 0 mm 1099.0 W/m2 CLR
15:25 -1.4 °C -12.4 °C 33981.9 hPa WNW 50.7 km/h 50.7 km/h 29 % 0 mm 1037.0 W/m2 CLR
15:30 -1.4 °C -12.5 °C 33971.7 hPa NW 71.5 km/h 71.5 km/h 29 % 0 mm 1000.0 W/m2 CLR
15:35 -1.4 °C -12.4 °C 33981.9 hPa WNW 50.7 km/h 50.7 km/h 29 % 0 mm 1004.0 W/m2 CLR
15:40 -1.4 °C -12.8 °C 33981.9 hPa NW 50.7 km/h 50.7 km/h 28 % 0 mm 325.0 W/m2 CLR
15:45 -1.8 °C -12.8 °C 33971.7 hPa NW 44.7 km/h 44.7 km/h 29 % 0 mm 214.0 W/m2 CLR
15:50 -1.8 °C -12.5 °C 33971.7 hPa WNW 53.6 km/h 53.6 km/h 30 % 0 mm 1039.0 W/m2 CLR
15:55 -1.6 °C -12.7 °C 33971.7 hPa NNW 50.7 km/h 50.7 km/h 29 % 0 mm 1118.0 W/m2 CLR
16:00 -1.4 °C -12.8 °C 33958.2 hPa WSW 32.8 km/h 32.8 km/h 28 % 0 mm 264.0 W/m2 CLR
16:05 -1.7 °C -13.3 °C 33958.2 hPa NNW 53.6 km/h 53.6 km/h 27 % 0 mm 142.0 W/m2 CLR
16:10 -2.1 °C -13.3 °C 33971.7 hPa NW 53.6 km/h 53.6 km/h 28 % 0 mm 95.0 W/m2 CLR
16:12 -2.2 °C -13.4 °C 33971.7 hPa NNW 47.6 km/h 47.6 km/h 28 % 0 mm 98.0 W/m2 CLR
16:17 -2.4 °C -12.3 °C 33971.7 hPa NW 50.7 km/h 50.7 km/h 33 % 0 mm 86.0 W/m2 CLR
16:22 -2.8 °C -12.6 °C 33971.7 hPa NNW 53.6 km/h 53.6 km/h 33 % 0 mm 130.0 W/m2 CLR
16:27 -2.8 °C -11.8 °C 33971.7 hPa NW 31.1 km/h 31.1 km/h 36 % 0 mm 214.0 W/m2 CLR
16:32 -2.4 °C -12.5 °C 33958.2 hPa WNW 38.8 km/h 38.8 km/h 32 % 0 mm 396.0 W/m2 CLR
16:37 -2.3 °C -12.7 °C 33971.7 hPa WNW 47.6 km/h 47.6 km/h 31 % 0 mm 404.0 W/m2 CLR
16:42 -2.2 °C -12.6 °C 33958.2 hPa WNW 29.8 km/h 29.8 km/h 31 % 0 mm 381.0 W/m2 CLR
16:47 -2.1 °C -12.6 °C 33958.2 hPa NW 38.8 km/h 38.8 km/h 31 % 0 mm 294.0 W/m2 CLR
16:52 -2.2 °C -12.3 °C 33948 hPa NW 36.2 km/h 36.2 km/h 32 % 0 mm 258.0 W/m2 CLR
16:57 -2.3 °C -12.2 °C 33948 hPa NW 44.7 km/h 44.7 km/h 33 % 0 mm 258.0 W/m2 CLR
17:02 -2.3 °C -12.2 °C 33948 hPa WNW 32.8 km/h 32.8 km/h 33 % 0 mm 234.0 W/m2 CLR
17:07 -2.3 °C -12.4 °C 33948 hPa NW 26.9 km/h 26.9 km/h 32 % 0 mm 193.0 W/m2 CLR
17:12 -2.2 °C -12.1 °C 33948 hPa NNW 56.6 km/h 56.6 km/h 33 % 0 mm 206.0 W/m2 CLR
17:17 -2.1 °C -12.2 °C 33958.2 hPa WNW 71.5 km/h 71.5 km/h 32 % 0 mm 255.0 W/m2 CLR
17:22 -2.3 °C -12.4 °C 33958.2 hPa West 80.5 km/h 80.5 km/h 32 % 0 mm 271.0 W/m2 CLR
17:27 -2.4 °C -12.2 °C 33958.2 hPa WNW 44.7 km/h 44.7 km/h 33 % 0 mm 195.0 W/m2 CLR
17:32 -2.4 °C -12.3 °C 33992.1 hPa NW 95.3 km/h 95.3 km/h 33 % 0 mm 149.0 W/m2 CLR
17:37 -3.9 °C -11.8 °C 33992.1 hPa North 80.3 km/h 80.3 km/h 41 % 0 mm 220.0 W/m2 CLR
17:42 -4.4 °C -11.6 °C 33992.1 hPa NNW 59.5 km/h 59.5 km/h 44 % 0 mm 369.0 W/m2 CLR
17:47 -4.2 °C -11.6 °C 33981.9 hPa NNW 68.6 km/h 68.6 km/h 43 % 0 mm 708.0 W/m2 CLR
17:52 -3.9 °C -11.6 °C 33971.7 hPa NNW 44.7 km/h 44.7 km/h 42 % 0 mm 622.0 W/m2 CLR
17:57 -3.8 °C -11.7 °C 33971.7 hPa NNW 44.7 km/h 44.7 km/h 41 % 0 mm 608.0 W/m2 CLR
18:02 -3.8 °C -11.9 °C 33958.2 hPa NW 29.8 km/h 29.8 km/h 40 % 0 mm 156.0 W/m2 CLR
18:07 -3.7 °C -11.8 °C 33958.2 hPa NNW 47.6 km/h 47.6 km/h 40 % 0 mm 415.0 W/m2 CLR
18:12 -3.6 °C -11.7 °C 33958.2 hPa NW 32.8 km/h 32.8 km/h 40 % 0 mm 631.0 W/m2 CLR
18:17 -3.3 °C -11.9 °C 33958.2 hPa NNW 35.7 km/h 35.7 km/h 38 % 0 mm 645.0 W/m2 CLR
18:22 -3.3 °C -11.9 °C 33948 hPa NW 31.1 km/h 31.1 km/h 38 % 0 mm 501.0 W/m2 CLR
18:27 -3.3 °C -11.8 °C 33948 hPa NNW 25.9 km/h 25.9 km/h 38 % 0 mm 329.0 W/m2 CLR
18:32 -3 °C -11.8 °C 33948 hPa NW 33.6 km/h 33.6 km/h 37 % 0 mm 322.0 W/m2 CLR
18:37 -3.1 °C -11.9 °C 33948 hPa NW 32.8 km/h 32.8 km/h 37 % 0 mm 269.0 W/m2 CLR
18:42 -2.8 °C -11.9 °C 33937.9 hPa WNW 29.8 km/h 29.8 km/h 36 % 0 mm 561.0 W/m2 CLR
18:47 -2.6 °C -11.6 °C 33937.9 hPa NW 35.7 km/h 35.7 km/h 36 % 0 mm 476.0 W/m2 CLR
18:52 -2.4 °C -11.8 °C 33937.9 hPa NW 33.6 km/h 33.6 km/h 35 % 0 mm 469.0 W/m2 CLR
18:57 -2.4 °C -11.8 °C 33937.9 hPa NW 47.6 km/h 47.6 km/h 35 % 0 mm 425.0 W/m2 CLR
18:58 -2.4 °C -11.8 °C 33937.9 hPa NW 41.7 km/h 41.7 km/h 35 % 0 mm 429.0 W/m2 CLR
19:03 -2.6 °C -11.7 °C 33937.9 hPa NW 32.8 km/h 32.8 km/h 36 % 0 mm 446.0 W/m2 CLR
19:08 -2.4 °C -11.8 °C 33937.9 hPa WNW 38.8 km/h 38.8 km/h 35 % 0 mm 466.0 W/m2 CLR
19:13 -2.3 °C -11.7 °C 33937.9 hPa North 23.8 km/h 23.8 km/h 35 % 0 mm 417.0 W/m2 CLR
19:18 -2.3 °C -11.7 °C 33937.9 hPa NNW 23.8 km/h 25.9 km/h 35 % 0 mm 376.0 W/m2 CLR
19:23 -2.2 °C -12.3 °C 33948 hPa NW 56.6 km/h 56.6 km/h 32 % 0 mm 323.0 W/m2 CLR
19:29 -2.4 °C -12.3 °C 33948 hPa NW 53.6 km/h 53.6 km/h 33 % 0 mm 352.0 W/m2 CLR
19:34 -2.4 °C -12.3 °C 33948 hPa WNW 54.4 km/h 54.4 km/h 33 % 0 mm 336.0 W/m2 CLR
19:39 -2.4 °C -11.8 °C 33948 hPa WNW 56.6 km/h 56.6 km/h 35 % 0 mm 283.0 W/m2 CLR
19:44 -2.5 °C -11.8 °C 33948 hPa West 59.5 km/h 59.5 km/h 35 % 0 mm 258.0 W/m2 CLR
19:48 -2.4 °C -11.8 °C 33948 hPa WNW 44.7 km/h 47.2 km/h 35 % 0 mm 239.0 W/m2 CLR
19:54 -2.6 °C -11.9 °C 33948 hPa WNW 50.7 km/h 50.7 km/h 35 % 0 mm 227.0 W/m2 CLR
19:59 -2.6 °C -11.9 °C 33948 hPa WNW 64.7 km/h 64.7 km/h 35 % 0 mm 33.0 W/m2 CLR
20:04 -2.8 °C -12.1 °C 33948 hPa West 47.6 km/h 47.6 km/h 35 % 0 mm 199.0 W/m2 FEW
20:09 -2.7 °C -12.3 °C 33948 hPa West 50.7 km/h 50.7 km/h 34 % 0 mm 193.0 W/m2 FEW
20:14 -2.7 °C -12.4 °C 33958.2 hPa WNW 68.6 km/h 68.6 km/h 33 % 0 mm 185.0 W/m2 CLR
20:19 -2.7 °C -12.3 °C 33958.2 hPa WNW 71.5 km/h 71.5 km/h 34 % 0 mm 162.0 W/m2 CLR
20:24 -2.7 °C -12.2 °C 33958.2 hPa WNW 59.5 km/h 59.5 km/h 34 % 0 mm 153.0 W/m2 CLR
20:29 -2.7 °C -12.1 °C 33958.2 hPa NNW 56.6 km/h 56.6 km/h 35 % 0 mm 49.0 W/m2 CLR
20:34 -2.9 °C -11.9 °C 33958.2 hPa NW 53.6 km/h 53.6 km/h 36 % 0 mm 40.0 W/m2 SCT
20:39 -3 °C -11.8 °C 33958.2 hPa WNW 65.5 km/h 65.5 km/h 37 % 0 mm 46.0 W/m2 SCT
20:44 -3 °C -11.8 °C 33971.7 hPa WNW 50.7 km/h 50.7 km/h 37 % 0 mm 72.0 W/m2 FEW
20:49 -3 °C -11.8 °C 33971.7 hPa WNW 41.7 km/h 41.7 km/h 37 % 0 mm 54.0 W/m2 SCT
20:54 -3 °C -11.8 °C 33971.7 hPa WNW 50.7 km/h 50.7 km/h 37 % 0 mm 58.0 W/m2 SCT
20:59 -3 °C -12.1 °C 33971.7 hPa NW 51.8 km/h 51.8 km/h 36 % 0 mm 54.0 W/m2 SCT
21:04 -3.1 °C -12.3 °C 33981.9 hPa NNW 32.8 km/h 32.8 km/h 35 % 0 mm 44.0 W/m2 BKN
21:09 -3.1 °C -13.4 °C 33981.9 hPa WNW 67.3 km/h 67.3 km/h 31 % 0 mm 26.0 W/m2 BKN
21:14 -3.2 °C -13.7 °C 33981.9 hPa WNW 59.5 km/h 59.5 km/h 30 % 0 mm 21.0 W/m2 BKN
21:19 -3.3 °C -13.8 °C 33981.9 hPa NW 65.5 km/h 65.5 km/h 30 % 0 mm 16.0 W/m2 BKN
21:24 -3.4 °C -13.8 °C 33992.1 hPa NNW 49.2 km/h 49.2 km/h 30 % 0 mm 11.0 W/m2 BKN
21:29 -3.4 °C -13.9 °C 33992.1 hPa West 50.7 km/h 50.7 km/h 30 % 0 mm 7.0 W/m2 BKN
21:34 -3.5 °C -14 °C 33981.9 hPa NW 68.6 km/h 68.6 km/h 30 % 0 mm 5.0 W/m2 OVC
21:39 -3.6 °C -14.1 °C 33992.1 hPa WNW 35.7 km/h 35.7 km/h 30 % 0 mm 0.0 W/m2 OVC
21:44 -3.7 °C -14.1 °C 33992.1 hPa NW 50.7 km/h 50.7 km/h 30 % 0 mm 0.0 W/m2 OVC
21:49 -3.7 °C -14.4 °C 34005.6 hPa NW 29.8 km/h 29.8 km/h 29 % 0 mm 0.0 W/m2 CLR
21:54 -3.8 °C -14.5 °C 34005.6 hPa NW 47.6 km/h 47.6 km/h 29 % 0 mm 0.0 W/m2 CLR
21:59 -3.8 °C -14.8 °C 34005.6 hPa NW 54.4 km/h 54.4 km/h 28 % 0 mm 0.0 W/m2 CLR
22:04 -3.8 °C -14.8 °C 34005.6 hPa NW 49.2 km/h 49.2 km/h 28 % 0 mm 0.0 W/m2 CLR
22:09 -3.9 °C -14.6 °C 34015.8 hPa NW 47.6 km/h 47.6 km/h 29 % 0 mm 0.0 W/m2 CLR
22:14 -3.9 °C -14.7 °C 34015.8 hPa NW 38.8 km/h 38.8 km/h 29 % 0 mm 0.0 W/m2 CLR
22:19 -4 °C -14.7 °C 34015.8 hPa West 50.7 km/h 50.7 km/h 29 % 0 mm 0.0 W/m2 CLR
22:24 -4.1 °C -14.7 °C 34015.8 hPa WNW 41.7 km/h 41.7 km/h 29 % 0 mm 0.0 W/m2 CLR
22:29 -4.1 °C -14.8 °C 34029.3 hPa NW 35.7 km/h 35.7 km/h 29 % 0 mm 0.0 W/m2 CLR
22:34 -4.2 °C -14.6 °C 34029.3 hPa NW 38.8 km/h 38.8 km/h 30 % 0 mm 0.0 W/m2 CLR
22:39 -4.2 °C -14.6 °C 34029.3 hPa WNW 50.7 km/h 50.7 km/h 30 % 0 mm 0.0 W/m2 CLR
22:44 -4.2 °C -14.6 °C 34029.3 hPa WNW 38.8 km/h 38.8 km/h 30 % 0 mm 0.0 W/m2 CLR
22:49 -4.2 °C -14.6 °C 34029.3 hPa WNW 47.6 km/h 47.6 km/h 30 % 0 mm 0.0 W/m2 CLR
22:54 -4.2 °C -14.6 °C 34039.5 hPa West 47.6 km/h 47.6 km/h 30 % 0 mm 0.0 W/m2 CLR
22:59 -4.2 °C -14.6 °C 34039.5 hPa West 35.7 km/h 35.7 km/h 30 % 0 mm 0.0 W/m2 CLR
23:04 -4.2 °C -14.6 °C 34039.5 hPa West 31.1 km/h 31.1 km/h 30 % 0 mm 0.0 W/m2 CLR
23:09 -4.3 °C -14.4 °C 34039.5 hPa West 44.7 km/h 44.7 km/h 31 % 0 mm 0.0 W/m2 CLR
23:14 -4.3 °C -14.5 °C 34049.6 hPa West 32.8 km/h 32.8 km/h 31 % 0 mm 0.0 W/m2 CLR
23:15 -4.3 °C -14.5 °C 34039.5 hPa WNW 29.8 km/h 29.8 km/h 31 % 0 mm 0.0 W/m2 CLR
23:20 -4.4 °C -14.3 °C 34049.6 hPa WNW 32.8 km/h 32.8 km/h 32 % 0 mm 0.0 W/m2 CLR
23:25 -4.5 °C -14.3 °C 34049.6 hPa WNW 44.7 km/h 44.7 km/h 32 % 0 mm 0.0 W/m2 CLR
23:30 -4.6 °C -13.9 °C 34063.2 hPa NNW 54.4 km/h 54.4 km/h 34 % 0 mm 0.0 W/m2 CLR
23:35 -4.7 °C -13.1 °C 34063.2 hPa NNW 53.6 km/h 53.6 km/h 38 % 0 mm 0.0 W/m2 CLR
23:40 -4.8 °C -12.4 °C 34063.2 hPa NNW 53.6 km/h 53.6 km/h 42 % 0 mm 0.0 W/m2 CLR
23:45 -5.1 °C -12 °C 34063.2 hPa WNW 47.6 km/h 47.6 km/h 45 % 0 mm 0.0 W/m2 CLR
23:50 -5.2 °C -11.8 °C 34073.3 hPa NW 41.7 km/h 41.7 km/h 47 % 0 mm 0.0 W/m2 CLR
23:55 -5.4 °C -11.4 °C 34073.3 hPa NW 33.6 km/h 33.6 km/h 50 % 0 mm 0.0 W/m2 CLR
Lo Temps de Massalio
Compliments of Weather Underground - 1.25 mb